Terminal Aerodrome Forecast
Issued by NWS Charleston, WV

Current Version | Previous Version | Text Only | Print | Product List | Glossary Off
Versions: 1 2 3 4 5 6 7 8 9 10 11 12 13 14 15 16 17 18 19 20 21 22 23 24 25 26 27 28 29 30 31

871
FTUS41 KRLX 041738
TAFCRW
TAF
KCRW 041738Z 0418/0518 10003KT P6SM OVC100
     FM042200 12004KT P6SM OVC050
     FM050300 21004KT P6SM -RA OVC025
     FM050900 27004KT P6SM SCT008 OVC015=

USA.gov is the U.S. government's official web portal to all federal, state and local government web resources and services.